Terminal Aerodrome Forecast
Issued by NWS

Current Version | Previous Version | Text Only | Print | Product List | Glossary On
Versions: 1 2 3 4 5 6 7 8 9 10 11 12 13 14 15 16 17 18
000
FTAK31 PANC 181150
TAFADL
TAF
PADL 181150Z 1812/1912 00000KT P6SM SKC
     FM181900 11008KT P6SM BKN100
     FM182200 12010G20KT P6SM SCT025 OVC035
     FM190100 13014G23KT 3SM -SN SCT008 OVC015
     FM190600 14014G23KT 4SM -RA BR BKN008 OVC015=

USA.gov is the U.S. government's official web portal to all federal, state and local government web resources and services.